Time;durP1;ratioP1;P1;durP2;ratioP2;P2;SDS_P1;SDS_P2;PMS_P1;PMS_P2;Temp;Humidity;BMP_temperature;BMP_pressure;BME280_temperature;BME280_humidity;BME280_pressure;Samples;Min_cycle;Max_cycle;Signal;HPM_P1;HPM_P2
2021/12/30 00:02:15;;;;;;;8.33;4.80;;;7.30;97.30;;;;;;5048187;28;20466;-90
2021/12/30 00:04:48;;;;;;;12.00;5.47;;;7.30;97.30;;;;;;5055311;28;20182;-89
2021/12/30 00:07:16;;;;;;;10.60;5.33;;;7.30;97.30;;;;;;5051272;28;20478;-89
2021/12/30 00:09:44;;;;;;;11.83;5.30;;;7.30;97.30;;;;;;5052657;28;20434;-88
2021/12/30 00:12:14;;;;;;;9.57;4.67;;;7.40;97.30;;;;;;5055153;28;20438;-89
2021/12/30 00:14:47;;;;;;;15.43;5.60;;;7.40;97.30;;;;;;5052917;28;20438;-89
2021/12/30 00:17:13;;;;;;;8.10;4.03;;;7.40;97.30;;;;;;5057881;28;20438;-89
2021/12/30 00:19:46;;;;;;;8.93;4.50;;;7.40;97.30;;;;;;5054932;28;20438;-89
2021/12/30 00:22:12;;;;;;;8.60;5.00;;;7.40;97.30;;;;;;5056710;28;20176;-88
2021/12/30 00:24:38;;;;;;;9.40;5.23;;;7.50;97.30;;;;;;5050018;28;20518;-88
2021/12/30 00:27:04;;;;;;;11.07;5.10;;;7.50;97.30;;;;;;5056037;28;20468;-89
2021/12/30 00:29:30;;;;;;;10.00;5.30;;;7.50;97.30;;;;;;5058354;28;21938;-88
2021/12/30 00:31:55;;;;;;;6.83;4.43;;;7.50;97.30;;;;;;5055600;28;20494;-89
2021/12/30 00:34:24;;;;;;;9.30;5.00;;;7.50;97.30;;;;;;5050063;28;20459;-89
2021/12/30 00:36:54;;;;;;;11.40;5.17;;;7.50;97.30;;;;;;5055548;28;20182;-88
2021/12/30 00:39:24;;;;;;;7.93;4.77;;;7.60;97.30;;;;;;5066417;28;20439;-89
2021/12/30 00:41:57;;;;;;;14.23;5.93;;;7.60;97.30;;;;;;5050494;28;20416;-88
2021/12/30 00:44:25;;;;;;;9.10;5.00;;;7.60;97.30;;;;;;5063890;28;20438;-89
2021/12/30 00:47:03;;;;;;;7.83;4.13;;;7.60;97.30;;;;;;5049408;28;20438;-89
2021/12/30 00:49:36;;;;;;;12.37;5.47;;;7.60;97.30;;;;;;5055233;28;20433;-89
2021/12/30 00:52:05;;;;;;;10.40;4.80;;;7.60;97.30;;;;;;5040657;28;21051;-89
2021/12/30 00:54:32;;;;;;;12.00;5.10;;;7.60;97.30;;;;;;5035741;28;20455;-89
2021/12/30 00:56:59;;;;;;;13.00;5.17;;;7.60;97.30;;;;;;5055329;28;20445;-88
2021/12/30 00:59:25;;;;;;;11.30;5.00;;;7.70;97.30;;;;;;5052298;28;20447;-89
2021/12/30 01:02:03;;;;;;;10.23;5.30;;;7.70;97.30;;;;;;5048227;28;20439;-89
2021/12/30 01:04:33;;;;;;;12.23;5.70;;;7.70;97.30;;;;;;5053681;28;20560;-89
2021/12/30 01:06:59;;;;;;;10.33;4.37;;;7.70;97.30;;;;;;5068637;28;20456;-90
2021/12/30 01:09:24;;;;;;;9.70;4.73;;;7.70;97.30;;;;;;5065826;28;20450;-89
2021/12/30 01:11:52;;;;;;;11.63;5.03;;;7.80;97.30;;;;;;5053265;28;20191;-89
2021/12/30 01:14:23;;;;;;;8.93;4.70;;;7.80;97.30;;;;;;5053966;28;20311;-89
2021/12/30 01:16:53;;;;;;;8.47;3.90;;;7.80;97.30;;;;;;5046242;28;20439;-89
2021/12/30 01:21:57;;;;;;;10.93;4.87;;;7.90;97.30;;;;;;5053776;28;20840;-89
2021/12/30 01:24:25;;;;;;;6.60;3.67;;;7.90;97.30;;;;;;5043583;28;20446;-89
2021/12/30 01:26:53;;;;;;;5.90;3.93;;;7.90;97.30;;;;;;5049294;28;20819;-87
2021/12/30 01:29:19;;;;;;;11.10;4.27;;;7.90;97.30;;;;;;5039483;28;20509;-89
2021/12/30 01:31:44;;;;;;;7.83;4.60;;;8.00;97.30;;;;;;5038019;28;20492;-88
2021/12/30 01:34:11;;;;;;;8.53;4.17;;;8.00;97.30;;;;;;5032545;28;20232;-88
2021/12/30 01:36:37;;;;;;;9.00;3.97;;;8.00;97.30;;;;;;5046340;28;20187;-90
2021/12/30 01:39:03;;;;;;;6.80;4.27;;;8.00;97.30;;;;;;5041579;28;20438;-89
2021/12/30 01:41:28;;;;;;;7.53;3.87;;;8.00;97.30;;;;;;5046016;28;20180;-88
2021/12/30 01:43:54;;;;;;;7.17;3.90;;;8.00;97.30;;;;;;5048049;28;20499;-89
2021/12/30 01:46:22;;;;;;;6.10;4.03;;;8.00;97.30;;;;;;5044980;28;20183;-88
2021/12/30 01:48:47;;;;;;;9.40;4.30;;;8.00;97.30;;;;;;5033852;28;20710;-89
2021/12/30 01:51:13;;;;;;;10.73;4.57;;;8.00;97.30;;;;;;5034425;28;20446;-87
2021/12/30 01:53:39;;;;;;;7.77;4.20;;;8.00;97.30;;;;;;5045963;28;20226;-89
2021/12/30 01:56:05;;;;;;;8.23;4.37;;;8.00;97.30;;;;;;5033666;28;20465;-88
2021/12/30 01:58:32;;;;;;;7.90;4.03;;;8.00;97.30;;;;;;5044725;28;20207;-88
2021/12/30 02:00:58;;;;;;;10.70;5.00;;;8.00;97.30;;;;;;5040457;28;20537;-89
2021/12/30 02:03:24;;;;;;;7.80;4.60;;;8.00;97.30;;;;;;5031032;28;20997;-89
2021/12/30 02:05:50;;;;;;;5.40;3.53;;;8.00;97.30;;;;;;5034625;28;20188;-88
2021/12/30 02:08:18;;;;;;;6.20;3.53;;;8.00;97.30;;;;;;5051620;28;20430;-88
2021/12/30 02:10:45;;;;;;;8.67;4.10;;;8.00;97.30;;;;;;5033532;28;20434;-89
2021/12/30 02:13:15;;;;;;;6.93;4.23;;;8.10;97.30;;;;;;5044044;28;20468;-89
2021/12/30 02:15:43;;;;;;;7.47;3.83;;;8.10;97.30;;;;;;5039458;28;20435;-89
2021/12/30 02:18:13;;;;;;;8.80;4.60;;;8.10;97.30;;;;;;5032928;28;21035;-88
2021/12/30 02:20:54;;;;;;;9.40;4.50;;;8.10;97.30;;;;;;5043797;28;20414;-89
2021/12/30 02:23:34;;;;;;;6.40;3.90;;;8.10;97.30;;;;;;5049266;28;20511;-89
2021/12/30 02:26:03;;;;;;;5.03;3.20;;;8.10;97.30;;;;;;5050313;28;20898;-89
2021/12/30 02:28:34;;;;;;;10.80;4.77;;;8.20;97.30;;;;;;5050288;28;20474;-90
2021/12/30 02:31:02;;;;;;;6.50;3.97;;;8.20;97.30;;;;;;5043548;28;20502;-89
2021/12/30 02:33:28;;;;;;;8.40;3.70;;;8.20;97.30;;;;;;5056290;28;20497;-90
2021/12/30 02:35:55;;;;;;;7.10;4.13;;;8.20;97.30;;;;;;5053893;28;20479;-90
2021/12/30 02:38:22;;;;;;;6.60;4.03;;;8.20;97.30;;;;;;5049518;28;20360;-89
2021/12/30 02:40:51;;;;;;;8.70;3.80;;;8.20;97.30;;;;;;5048368;28;20776;-90
2021/12/30 02:43:28;;;;;;;8.87;4.47;;;8.30;97.30;;;;;;5040045;28;20960;-90
2021/12/30 02:45:56;;;;;;;7.30;3.27;;;8.30;97.30;;;;;;5039227;28;20450;-89
2021/12/30 02:48:25;;;;;;;5.10;3.40;;;8.30;97.30;;;;;;5037670;28;20463;-88
2021/12/30 02:50:53;;;;;;;7.33;4.07;;;8.30;97.30;;;;;;5034613;28;20446;-89
2021/12/30 02:53:22;;;;;;;7.27;3.67;;;8.30;97.30;;;;;;5035305;28;21011;-89
2021/12/30 02:55:56;;;;;;;5.30;3.60;;;8.30;97.30;;;;;;5042374;28;20518;-89
2021/12/30 02:58:24;;;;;;;8.10;4.20;;;8.40;97.30;;;;;;5037252;28;20486;-90
2021/12/30 03:01:06;;;;;;;9.57;5.03;;;8.40;97.30;;;;;;5048565;28;20438;-88
2021/12/30 03:03:32;;;;;;;8.60;4.17;;;8.40;97.30;;;;;;5035539;28;20443;-89
2021/12/30 03:06:00;;;;;;;13.43;4.27;;;8.50;97.30;;;;;;5034801;28;20465;-90
2021/12/30 03:08:27;;;;;;;9.37;3.90;;;8.50;97.30;;;;;;5034691;28;20443;-88
2021/12/30 03:10:55;;;;;;;9.70;4.53;;;8.60;97.30;;;;;;5033606;28;20435;-89
2021/12/30 03:13:29;;;;;;;9.07;4.60;;;8.60;97.30;;;;;;5034319;28;20545;-89
2021/12/30 03:15:55;;;;;;;8.70;4.43;;;8.70;97.30;;;;;;5045190;28;20437;-90
2021/12/30 03:18:23;;;;;;;7.87;3.67;;;8.70;97.30;;;;;;5049286;28;20442;-90
2021/12/30 03:20:57;;;;;;;8.43;4.50;;;8.70;97.30;;;;;;5043182;28;20187;-89
2021/12/30 03:23:24;;;;;;;8.57;4.70;;;8.80;97.30;;;;;;5034457;28;20419;-90
2021/12/30 03:25:52;;;;;;;8.60;4.13;;;8.80;97.30;;;;;;5033158;28;20961;-90
2021/12/30 03:28:18;;;;;;;6.50;4.00;;;8.80;97.30;;;;;;5048275;28;21053;-90
2021/12/30 03:30:44;;;;;;;9.03;4.30;;;8.90;97.30;;;;;;5043438;28;20435;-89
2021/12/30 03:33:10;;;;;;;10.40;5.00;;;8.90;97.30;;;;;;5039530;28;20999;-89
2021/12/30 03:35:36;;;;;;;7.53;3.80;;;8.90;97.30;;;;;;5053631;28;20990;-87
2021/12/30 03:38:02;;;;;;;6.47;3.70;;;8.90;97.30;;;;;;5053925;28;20580;-89
2021/12/30 03:40:30;;;;;;;7.83;4.63;;;8.90;97.30;;;;;;5051721;28;20180;-90
2021/12/30 03:42:56;;;;;;;12.40;4.40;;;8.90;97.30;;;;;;5052273;28;20442;-88
2021/12/30 03:45:24;;;;;;;10.67;4.93;;;9.00;97.30;;;;;;5041899;28;20885;-89
2021/12/30 03:47:57;;;;;;;8.03;4.03;;;9.00;97.30;;;;;;5033632;28;20988;-89
2021/12/30 03:50:27;;;;;;;10.47;4.47;;;9.00;97.30;;;;;;5034346;28;21749;-88
2021/12/30 03:52:58;;;;;;;9.17;4.57;;;9.00;97.30;;;;;;5046619;28;20839;-87
2021/12/30 03:55:28;;;;;;;7.80;3.73;;;9.00;97.30;;;;;;5038221;28;20545;-89
2021/12/30 03:57:54;;;;;;;8.00;4.57;;;9.00;97.30;;;;;;5043064;28;20439;-90
2021/12/30 04:00:24;;;;;;;7.80;5.10;;;9.00;97.30;;;;;;5032665;28;20435;-89
2021/12/30 04:02:54;;;;;;;9.33;4.80;;;9.00;97.30;;;;;;5039406;28;20796;-89
2021/12/30 04:05:21;;;;;;;10.60;5.07;;;9.00;97.30;;;;;;5045196;28;20435;-89
2021/12/30 04:07:47;;;;;;;6.83;4.10;;;9.00;97.30;;;;;;5033906;28;20489;-89
2021/12/30 04:10:14;;;;;;;7.07;4.30;;;9.00;97.30;;;;;;5049098;28;21014;-88
2021/12/30 04:12:41;;;;;;;7.97;3.90;;;8.90;97.30;;;;;;5054730;28;20226;-89
2021/12/30 04:15:08;;;;;;;7.43;4.13;;;8.90;97.30;;;;;;5038036;28;20434;-89
2021/12/30 04:17:33;;;;;;;7.87;3.67;;;9.00;97.30;;;;;;5045241;28;20534;-89
2021/12/30 04:19:59;;;;;;;12.03;4.90;;;9.00;97.30;;;;;;5038561;28;20458;-89
2021/12/30 04:22:24;;;;;;;9.20;4.57;;;9.00;97.30;;;;;;5051787;28;20495;-89
2021/12/30 04:24:50;;;;;;;9.20;4.03;;;9.00;97.30;;;;;;5033373;28;20181;-89
2021/12/30 04:27:16;;;;;;;9.83;4.50;;;9.00;97.30;;;;;;5037668;28;20612;-90
2021/12/30 04:29:44;;;;;;;7.97;4.10;;;9.10;97.30;;;;;;5044119;28;20844;-88
2021/12/30 04:32:12;;;;;;;8.87;3.60;;;9.10;97.30;;;;;;5057395;28;20185;-88
2021/12/30 04:34:37;;;;;;;15.93;4.30;;;9.10;97.30;;;;;;5048102;28;20995;-90
2021/12/30 04:37:05;;;;;;;9.30;4.30;;;9.20;97.30;;;;;;5048085;28;20580;-89
2021/12/30 04:39:33;;;;;;;7.47;3.27;;;9.20;97.30;;;;;;5035857;28;20184;-89
2021/12/30 04:42:01;;;;;;;6.33;3.30;;;9.20;97.30;;;;;;5032518;28;20431;-89
2021/12/30 04:44:27;;;;;;;9.70;4.03;;;9.20;97.30;;;;;;5031112;28;20439;-88
2021/12/30 04:46:56;;;;;;;7.57;3.83;;;9.20;97.30;;;;;;5047255;28;20673;-87
2021/12/30 04:49:22;;;;;;;9.57;4.07;;;9.30;97.30;;;;;;5035667;28;20466;-88
2021/12/30 04:51:48;;;;;;;9.00;3.93;;;9.30;97.30;;;;;;5045653;28;20407;-89
2021/12/30 04:54:13;;;;;;;5.87;3.30;;;9.30;97.30;;;;;;5040651;28;21070;-89
2021/12/30 04:56:39;;;;;;;8.07;3.90;;;9.40;97.30;;;;;;5046508;28;20470;-89
2021/12/30 04:59:05;;;;;;;14.53;3.80;;;9.40;97.30;;;;;;5048986;28;20261;-88
2021/12/30 05:01:30;;;;;;;9.83;4.37;;;9.40;97.30;;;;;;5043735;28;20229;-89
2021/12/30 05:03:56;;;;;;;8.00;3.70;;;9.40;97.30;;;;;;5041829;28;20262;-88
2021/12/30 05:06:24;;;;;;;7.73;3.80;;;9.40;97.30;;;;;;5042939;28;20251;-89
2021/12/30 05:08:57;;;;;;;7.27;3.90;;;9.50;97.30;;;;;;5055407;28;20243;-88
2021/12/30 05:11:25;;;;;;;11.33;4.40;;;9.50;97.30;;;;;;5040731;28;20431;-89
2021/12/30 05:13:57;;;;;;;7.13;3.77;;;9.60;97.30;;;;;;5034967;28;20511;-89
2021/12/30 05:16:26;;;;;;;13.80;3.60;;;9.60;97.30;;;;;;5041904;28;20426;-88
2021/12/30 05:18:56;;;;;;;8.93;4.10;;;9.60;97.30;;;;;;5030326;28;20882;-89
2021/12/30 05:21:22;;;;;;;8.83;3.80;;;9.60;97.30;;;;;;5037400;28;20483;-89
2021/12/30 05:23:48;;;;;;;9.10;4.10;;;9.60;97.30;;;;;;5032276;28;20431;-88
2021/12/30 05:26:16;;;;;;;9.00;3.73;;;9.60;97.30;;;;;;5042854;28;20179;-89
2021/12/30 18:26:31;;;;;;;3.93;3.13;;;13.70;97.30;;;;;;5326768;23;23008;-84
2021/12/30 18:28:56;;;;;;;1.90;1.80;;;13.70;97.30;;;;;;5023227;28;20559;-86
2021/12/30 18:31:22;;;;;;;2.90;2.03;;;13.70;97.30;;;;;;5028506;28;20688;-84
2021/12/30 18:33:47;;;;;;;3.63;2.10;;;13.70;97.30;;;;;;5028085;28;20193;-84
2021/12/30 18:36:13;;;;;;;3.20;1.90;;;13.80;97.30;;;;;;5028240;28;20201;-84
2021/12/30 18:38:38;;;;;;;2.57;2.03;;;13.80;97.30;;;;;;5018741;28;20576;-85
2021/12/30 18:41:04;;;;;;;2.30;1.63;;;13.80;97.30;;;;;;5008349;28;20192;-85
2021/12/30 18:43:29;;;;;;;1.63;1.53;;;13.80;97.30;;;;;;5009943;28;20181;-84
2021/12/30 18:45:58;;;;;;;3.00;1.83;;;13.80;97.30;;;;;;5008595;28;20197;-85
2021/12/30 18:48:24;;;;;;;4.03;1.70;;;13.80;97.30;;;;;;5008119;28;20292;-84
2021/12/30 18:50:52;;;;;;;3.83;2.70;;;13.80;97.30;;;;;;5008482;28;20424;-85
2021/12/30 18:53:20;;;;;;;4.27;1.97;;;13.90;97.30;;;;;;5008740;28;20451;-86
2021/12/30 18:55:46;;;;;;;3.87;2.10;;;13.90;97.30;;;;;;5002763;28;20891;-85
2021/12/30 18:58:13;;;;;;;4.03;1.60;;;13.90;97.30;;;;;;4994387;28;20438;-84
2021/12/30 19:00:43;;;;;;;2.33;1.83;;;14.00;97.30;;;;;;4998788;28;20970;-84
2021/12/30 19:03:09;;;;;;;4.83;2.80;;;14.00;97.30;;;;;;4988722;28;20437;-85
2021/12/30 19:05:35;;;;;;;2.73;2.20;;;14.00;97.30;;;;;;4988835;28;20409;-84
2021/12/30 19:08:01;;;;;;;2.53;1.90;;;14.00;97.30;;;;;;4994651;28;20832;-84
2021/12/30 19:10:28;;;;;;;2.47;1.80;;;14.00;97.30;;;;;;5011189;28;20531;-85
2021/12/30 19:12:58;;;;;;;3.67;1.87;;;14.00;97.30;;;;;;5011635;28;20177;-84
2021/12/30 19:15:27;;;;;;;2.90;2.00;;;13.90;97.30;;;;;;5013216;28;21021;-84
2021/12/30 19:17:53;;;;;;;4.33;1.90;;;14.00;97.30;;;;;;5012308;28;20404;-86
2021/12/30 19:20:19;;;;;;;2.50;1.80;;;14.00;97.30;;;;;;5011728;28;20428;-85
2021/12/30 19:22:47;;;;;;;2.47;2.33;;;14.00;97.30;;;;;;5012915;28;20301;-85
2021/12/30 19:25:16;;;;;;;2.10;1.80;;;14.00;97.30;;;;;;5011536;28;20451;-84
2021/12/30 19:27:45;;;;;;;3.43;2.03;;;14.00;97.30;;;;;;5011139;28;20500;-84
2021/12/30 19:30:13;;;;;;;2.30;1.73;;;14.00;97.30;;;;;;5011488;28;20432;-85
2021/12/30 19:32:39;;;;;;;3.70;2.00;;;14.00;97.30;;;;;;5010423;28;20842;-84
2021/12/30 19:35:06;;;;;;;2.00;1.80;;;14.00;97.30;;;;;;5012729;28;20460;-84
2021/12/30 19:37:33;;;;;;;4.87;1.70;;;14.00;97.30;;;;;;5011414;28;20440;-84
2021/12/30 19:39:58;;;;;;;5.60;2.00;;;14.00;97.30;;;;;;5002944;28;20543;-85
2021/12/30 19:42:24;;;;;;;1.87;1.70;;;14.00;97.30;;;;;;4999402;28;20413;-84
2021/12/30 19:44:51;;;;;;;5.40;1.70;;;14.00;97.30;;;;;;4998797;28;20499;-84
2021/12/30 19:47:17;;;;;;;2.23;1.80;;;14.00;97.30;;;;;;4998449;28;20439;-84
2021/12/30 19:49:44;;;;;;;1.80;1.47;;;14.00;97.30;;;;;;4998540;28;20428;-85
2021/12/30 19:52:09;;;;;;;3.80;1.93;;;14.00;97.30;;;;;;4998260;28;20443;-84
2021/12/30 19:54:35;;;;;;;1.40;1.30;;;14.00;97.30;;;;;;4991242;28;20971;-83
2021/12/30 19:57:03;;;;;;;3.20;1.90;;;14.00;97.30;;;;;;5000886;28;20194;-84
2021/12/30 19:59:29;;;;;;;3.60;2.33;;;14.00;97.30;;;;;;4998972;28;20181;-84
2021/12/30 20:01:54;;;;;;;3.13;1.90;;;14.00;97.30;;;;;;4991080;28;20429;-84
2021/12/30 20:04:20;;;;;;;4.40;1.80;;;14.00;97.30;;;;;;4990622;28;20182;-84
2021/12/30 20:06:46;;;;;;;3.87;2.50;;;14.00;97.30;;;;;;4992287;28;20248;-84
2021/12/30 20:09:11;;;;;;;12.03;6.80;;;14.00;97.30;;;;;;5002973;28;20185;-83
2021/12/30 20:11:37;;;;;;;3.70;1.90;;;14.00;97.30;;;;;;5011273;28;20212;-84
2021/12/30 20:14:10;;;;;;;3.40;2.30;;;14.00;97.30;;;;;;5010140;28;20205;-84
2021/12/30 20:16:37;;;;;;;2.77;1.60;;;14.00;97.30;;;;;;5011275;28;20280;-84
2021/12/30 20:19:06;;;;;;;2.80;1.73;;;14.00;97.30;;;;;;5009921;28;20777;-84
2021/12/30 20:21:31;;;;;;;3.40;1.90;;;14.00;97.30;;;;;;5009603;28;20420;-84
2021/12/30 20:24:00;;;;;;;2.90;1.87;;;14.00;97.30;;;;;;5011759;28;20956;-84
2021/12/30 20:26:30;;;;;;;2.90;2.23;;;14.00;97.30;;;;;;5010166;28;20207;-84
2021/12/30 20:28:55;;;;;;;3.97;2.30;;;14.00;97.30;;;;;;5010101;28;20490;-85
2021/12/30 20:31:23;;;;;;;5.63;2.60;;;14.00;97.30;;;;;;5010087;28;20933;-84
2021/12/30 20:33:49;;;;;;;6.07;2.70;;;13.90;97.30;;;;;;5010266;28;20729;-83
2021/12/30 20:36:14;;;;;;;2.80;2.40;;;13.90;97.30;;;;;;5008592;28;20443;-84
2021/12/30 20:38:41;;;;;;;5.20;2.03;;;13.90;97.30;;;;;;5010520;28;20205;-84
2021/12/30 20:41:06;;;;;;;3.23;1.60;;;13.90;97.30;;;;;;5010015;28;20498;-85
2021/12/30 20:43:34;;;;;;;2.57;2.07;;;13.90;97.30;;;;;;5011164;28;20177;-84
2021/12/30 20:45:59;;;;;;;1.63;1.30;;;13.90;97.30;;;;;;5010570;28;20213;-84
2021/12/30 20:48:28;;;;;;;3.27;1.60;;;13.90;97.30;;;;;;5010550;28;20926;-84
2021/12/30 20:50:53;;;;;;;2.50;1.60;;;13.90;97.30;;;;;;5007738;28;20644;-85
2021/12/30 20:53:20;;;;;;;4.33;2.17;;;13.80;97.30;;;;;;5002628;28;20420;-85
2021/12/30 20:55:48;;;;;;;2.50;1.70;;;13.80;97.30;;;;;;4992470;28;20205;-84
2021/12/30 20:58:14;;;;;;;3.63;1.70;;;13.70;97.30;;;;;;4993997;28;20434;-84
2021/12/30 21:00:44;;;;;;;1.93;1.37;;;13.60;97.30;;;;;;5011191;28;20408;-84
2021/12/30 21:03:09;;;;;;;2.20;1.80;;;13.50;97.30;;;;;;5010539;28;20200;-84
2021/12/30 21:05:36;;;;;;;3.50;2.23;;;13.40;97.30;;;;;;5010400;28;20946;-83
2021/12/30 21:08:05;;;;;;;2.90;1.87;;;13.30;97.30;;;;;;5001050;28;20193;-84
2021/12/30 21:10:35;;;;;;;4.10;2.20;;;13.30;97.30;;;;;;5010177;28;20431;-84
2021/12/30 21:13:01;;;;;;;2.33;1.67;;;13.20;97.30;;;;;;5010049;28;20424;-84
2021/12/30 21:15:29;;;;;;;1.97;1.80;;;13.20;97.30;;;;;;5011176;28;20635;-84
2021/12/30 21:17:55;;;;;;;2.77;1.97;;;13.10;97.30;;;;;;5009781;28;20437;-84
2021/12/30 21:20:21;;;;;;;2.90;1.90;;;13.10;97.30;;;;;;5010148;28;20948;-83
2021/12/30 21:22:47;;;;;;;2.33;1.90;;;13.20;97.30;;;;;;5006755;28;20535;-84
2021/12/30 21:25:17;;;;;;;2.53;1.90;;;13.20;97.30;;;;;;5010070;28;20173;-84
2021/12/30 21:27:43;;;;;;;6.33;2.00;;;13.20;97.30;;;;;;5017685;28;20553;-84
2021/12/30 21:30:11;;;;;;;2.50;1.90;;;13.20;97.30;;;;;;5030929;28;20429;-84
2021/12/30 21:32:37;;;;;;;7.57;2.00;;;13.30;97.30;;;;;;5012835;28;20754;-85
2021/12/30 21:35:03;;;;;;;2.70;1.70;;;13.30;97.30;;;;;;5030016;28;20465;-84
2021/12/30 21:37:29;;;;;;;2.47;2.10;;;13.30;97.30;;;;;;5029494;28;20450;-84
2021/12/30 21:39:54;;;;;;;4.53;1.90;;;13.30;97.30;;;;;;5017473;28;20424;-83
2021/12/30 21:42:20;;;;;;;3.30;2.40;;;13.30;97.30;;;;;;5013179;28;20176;-84
2021/12/30 21:44:45;;;;;;;2.13;1.80;;;13.30;97.30;;;;;;5010221;28;20730;-84
2021/12/30 21:47:11;;;;;;;6.77;1.80;;;13.40;97.30;;;;;;5021463;28;20200;-84
2021/12/30 21:49:37;;;;;;;2.47;1.87;;;13.40;97.30;;;;;;5001928;28;20181;-84
2021/12/30 21:52:05;;;;;;;1.83;1.50;;;13.50;97.30;;;;;;5011112;28;20185;-84
2021/12/30 21:54:31;;;;;;;3.57;1.70;;;13.50;97.30;;;;;;4993306;28;20686;-84
2021/12/30 21:56:57;;;;;;;5.43;1.87;;;13.50;97.30;;;;;;4996488;28;20488;-83
2021/12/30 21:59:23;;;;;;;6.20;2.70;;;13.60;97.30;;;;;;5027897;28;20310;-84
2021/12/30 22:01:48;;;;;;;2.57;1.90;;;13.60;97.30;;;;;;5012925;28;20499;-84
2021/12/30 22:04:16;;;;;;;3.57;1.40;;;13.60;97.30;;;;;;5013246;28;20696;-83
2021/12/30 22:06:44;;;;;;;1.80;1.80;;;13.60;97.30;;;;;;5012699;28;20287;-84
2021/12/30 22:09:10;;;;;;;4.80;1.60;;;13.70;97.30;;;;;;5012990;28;21036;-84
2021/12/30 22:11:36;;;;;;;1.97;1.60;;;13.70;97.30;;;;;;5012832;28;20431;-84
2021/12/30 22:14:02;;;;;;;1.43;1.37;;;13.80;97.30;;;;;;5012940;28;20469;-84
2021/12/30 22:16:27;;;;;;;5.83;2.00;;;13.70;97.30;;;;;;5009089;28;20296;-84
2021/12/30 22:18:53;;;;;;;5.70;2.10;;;13.80;97.30;;;;;;5003392;28;20168;-85
2021/12/30 22:21:18;;;;;;;2.10;1.73;;;13.80;97.30;;;;;;5002550;28;20644;-84
2021/12/30 22:23:44;;;;;;;3.30;1.80;;;13.80;97.30;;;;;;5021807;28;20678;-84
2021/12/30 22:26:14;;;;;;;2.87;1.77;;;13.80;97.30;;;;;;5004034;28;20211;-83
2021/12/30 22:28:40;;;;;;;3.13;1.77;;;13.80;97.30;;;;;;5012711;28;20613;-83
2021/12/30 22:31:06;;;;;;;8.40;1.97;;;13.90;97.30;;;;;;5007668;28;20419;-84
2021/12/30 22:33:32;;;;;;;1.70;1.43;;;13.90;97.30;;;;;;5010930;28;20490;-84
2021/12/30 22:36:04;;;;;;;2.70;1.73;;;13.90;97.30;;;;;;5009402;28;20473;-85
2021/12/30 22:38:33;;;;;;;1.80;1.50;;;13.90;97.30;;;;;;5009789;28;20463;-84
2021/12/30 22:40:59;;;;;;;2.43;1.43;;;13.90;97.30;;;;;;5009535;28;20404;-84
2021/12/30 22:43:25;;;;;;;1.63;1.50;;;13.90;97.30;;;;;;5010704;28;20412;-84
2021/12/30 22:45:51;;;;;;;2.97;1.43;;;14.00;97.30;;;;;;5012064;28;20585;-84
2021/12/30 22:48:16;;;;;;;5.83;2.00;;;14.00;97.30;;;;;;5013557;28;20184;-84
2021/12/30 22:50:42;;;;;;;5.60;4.27;;;14.00;97.30;;;;;;5014745;28;20181;-84
2021/12/30 22:53:07;;;;;;;2.47;1.90;;;14.00;97.30;;;;;;5013362;28;20187;-85
2021/12/30 22:55:33;;;;;;;3.73;2.00;;;13.90;97.30;;;;;;5012679;28;20169;-84
2021/12/30 22:57:58;;;;;;;2.80;1.60;;;13.90;97.30;;;;;;5014040;28;20227;-83
2021/12/30 23:00:30;;;;;;;1.63;1.40;;;14.00;97.30;;;;;;5013814;28;20224;-84
2021/12/30 23:02:56;;;;;;;1.90;1.60;;;14.00;97.30;;;;;;5012988;28;20224;-85
2021/12/30 23:05:21;;;;;;;1.40;1.37;;;14.00;97.30;;;;;;5014397;28;20817;-85
2021/12/30 23:07:47;;;;;;;1.27;1.20;;;14.00;97.30;;;;;;5014013;28;20177;-85
2021/12/30 23:10:13;;;;;;;8.43;1.57;;;14.00;97.30;;;;;;5013959;28;20177;-84
2021/12/30 23:12:38;;;;;;;3.70;1.97;;;14.00;97.30;;;;;;5012666;28;20431;-85
2021/12/30 23:15:05;;;;;;;1.67;1.30;;;14.00;97.30;;;;;;5012898;28;20204;-85
2021/12/30 23:17:31;;;;;;;1.10;1.10;;;14.00;97.30;;;;;;5012935;28;20201;-84
2021/12/30 23:19:57;;;;;;;2.40;1.53;;;14.00;97.30;;;;;;5014045;28;20458;-85
2021/12/30 23:22:22;;;;;;;2.30;1.47;;;14.00;97.30;;;;;;5012537;28;20408;-84
2021/12/30 23:24:48;;;;;;;2.63;1.40;;;14.00;97.30;;;;;;5014312;28;20523;-84
2021/12/30 23:27:13;;;;;;;2.60;2.20;;;14.00;97.30;;;;;;5015187;28;20588;-84
2021/12/30 23:29:39;;;;;;;2.90;1.97;;;14.00;97.30;;;;;;5016200;28;20180;-84
2021/12/30 23:32:05;;;;;;;2.53;1.37;;;13.90;97.30;;;;;;5016171;28;20191;-83
2021/12/30 23:34:30;;;;;;;5.90;2.10;;;14.00;97.30;;;;;;5020433;28;20260;-84
2021/12/30 23:36:56;;;;;;;2.60;1.50;;;14.00;97.30;;;;;;5033307;28;20536;-83
2021/12/30 23:39:21;;;;;;;4.63;1.50;;;14.00;97.30;;;;;;5031806;28;20203;-84
2021/12/30 23:41:47;;;;;;;1.67;1.57;;;14.00;97.30;;;;;;5032131;28;20176;-83
2021/12/30 23:44:13;;;;;;;2.17;1.30;;;14.00;97.30;;;;;;5033358;28;20206;-84
2021/12/30 23:46:39;;;;;;;4.93;2.23;;;14.00;97.30;;;;;;5032049;28;20196;-83
2021/12/30 23:49:04;;;;;;;2.60;1.77;;;14.00;97.30;;;;;;5032010;28;20185;-85
2021/12/30 23:51:30;;;;;;;1.97;1.20;;;14.00;97.30;;;;;;5031927;28;20185;-84
2021/12/30 23:53:55;;;;;;;1.93;1.37;;;14.00;97.30;;;;;;5031766;28;20358;-84
2021/12/30 23:56:21;;;;;;;1.27;1.17;;;14.00;97.30;;;;;;5032128;28;20197;-85
2021/12/30 23:58:47;;;;;;;2.37;1.93;;;14.00;97.30;;;;;;5033128;28;20183;-84
